Time;durP1;ratioP1;P1;durP2;ratioP2;P2;SDS_P1;SDS_P2;PMS_P1;PMS_P2;Temp;Humidity;BMP_temperature;BMP_pressure;BME280_temperature;BME280_humidity;BME280_pressure;Samples;Min_cycle;Max_cycle;Signal;HPM_P1;HPM_P2
2022/09/30 00:00:16;;;;;;;4.57;4.18;;;8.20;99.90;;;;;;5027404;28;20097;-49
2022/09/30 00:02:41;;;;;;;4.70;4.30;;;8.20;99.90;;;;;;5023488;28;20017;-53
2022/09/30 00:05:07;;;;;;;5.90;4.68;;;8.20;99.90;;;;;;5026812;28;20048;-50
2022/09/30 00:07:33;;;;;;;5.82;5.13;;;8.20;99.90;;;;;;5025470;28;20467;-49
2022/09/30 00:09:58;;;;;;;5.10;4.60;;;8.20;99.90;;;;;;5027310;28;20048;-49
2022/09/30 00:22:30;;;;;;;5.47;4.97;;;8.10;99.90;;;;;;5009375;28;20128;-50
2022/09/30 00:24:56;;;;;;;5.95;4.68;;;8.10;99.90;;;;;;5018290;28;20052;-48
2022/09/30 00:27:22;;;;;;;5.75;5.00;;;8.20;99.90;;;;;;5028224;28;20434;-48
2022/09/30 00:29:47;;;;;;;5.15;4.68;;;8.10;99.90;;;;;;5025413;28;20035;-50
2022/09/30 00:32:13;;;;;;;4.97;4.57;;;8.20;99.90;;;;;;5028452;28;20021;-49
2022/09/30 00:34:38;;;;;;;5.80;5.00;;;8.20;99.90;;;;;;5026117;28;20048;-53
2022/09/30 00:37:04;;;;;;;5.47;4.97;;;8.20;99.90;;;;;;5003459;28;20018;-49
2022/09/30 00:39:30;;;;;;;5.63;5.13;;;8.30;99.90;;;;;;5027259;28;20021;-51
2022/09/30 00:42:01;;;;;;;6.60;5.63;;;8.30;99.90;;;;;;5022414;28;20028;-49
2022/09/30 00:44:46;;;;;;;7.80;6.55;;;8.30;99.90;;;;;;5021594;28;20025;-50
2022/09/30 00:47:27;;;;;;;5.57;5.05;;;8.30;99.90;;;;;;5004205;28;20029;-49
2022/09/30 00:49:54;;;;;;;5.82;5.22;;;8.30;99.90;;;;;;5026444;28;20108;-49
2022/09/30 00:52:19;;;;;;;7.45;5.72;;;8.30;99.90;;;;;;5014270;28;20109;-49
2022/09/30 00:54:45;;;;;;;8.38;5.95;;;8.30;99.90;;;;;;5019201;28;20101;-51
2022/09/30 00:57:11;;;;;;;6.10;5.60;;;8.30;99.90;;;;;;5030618;28;20558;-52
2022/09/30 00:59:41;;;;;;;7.40;6.70;;;8.30;99.90;;;;;;5022280;28;20084;-51
2022/09/30 01:02:09;;;;;;;6.43;5.82;;;8.30;99.90;;;;;;5020183;28;20018;-49
2022/09/30 01:04:36;;;;;;;7.13;6.43;;;8.30;99.90;;;;;;5024944;28;20030;-49
2022/09/30 01:07:05;;;;;;;7.32;6.63;;;8.30;99.90;;;;;;5022475;28;20026;-50
2022/09/30 01:09:39;;;;;;;6.97;5.90;;;8.30;99.90;;;;;;5028864;28;20026;-49
2022/09/30 01:12:13;;;;;;;7.10;6.18;;;8.20;99.90;;;;;;5005847;28;20451;-49
2022/09/30 01:14:40;;;;;;;5.28;4.78;;;8.20;99.90;;;;;;5028364;28;20033;-49
2022/09/30 01:17:09;;;;;;;6.43;5.45;;;8.20;99.90;;;;;;5024356;28;20030;-50
2022/09/30 01:20:13;;;;;;;7.75;6.47;;;8.20;99.90;;;;;;5023046;28;20025;-49
2022/09/30 01:23:07;;;;;;;6.53;5.93;;;8.10;99.90;;;;;;5026340;28;20025;-50
2022/09/30 01:26:08;;;;;;;6.63;6.00;;;8.10;99.90;;;;;;5018610;28;20117;-50
2022/09/30 01:29:02;;;;;;;6.78;6.13;;;8.00;99.90;;;;;;5020184;28;20030;-49
2022/09/30 01:31:42;;;;;;;8.48;7.18;;;8.00;99.90;;;;;;5030241;28;20029;-54
2022/09/30 01:34:28;;;;;;;8.00;7.20;;;8.00;99.90;;;;;;5024805;28;20029;-49
2022/09/30 01:37:22;;;;;;;9.13;7.75;;;7.90;99.90;;;;;;5070281;22;20045;-48
2022/09/30 01:40:21;;;;;;;8.48;7.28;;;7.90;99.90;;;;;;5020654;28;20388;-47
2022/09/30 01:42:50;;;;;;;7.97;7.25;;;7.90;99.90;;;;;;5043091;28;20021;-45
2022/09/30 01:45:23;;;;;;;8.23;7.43;;;7.80;99.90;;;;;;5039988;28;20213;-47
2022/09/30 01:47:55;;;;;;;6.85;6.13;;;7.80;99.90;;;;;;5050258;28;20451;-50
2022/09/30 01:50:41;;;;;;;8.32;5.85;;;7.70;99.90;;;;;;5042908;28;20068;-47
2022/09/30 01:53:37;;;;;;;7.68;6.88;;;7.70;99.90;;;;;;5045788;28;20029;-46
2022/09/30 01:56:19;;;;;;;7.07;6.38;;;7.70;99.90;;;;;;5047693;28;20025;-48
2022/09/30 01:58:47;;;;;;;7.47;6.72;;;7.60;99.90;;;;;;5045056;28;20016;-45
2022/09/30 02:01:34;;;;;;;7.80;7.00;;;7.60;99.90;;;;;;5047004;28;20029;-48
2022/09/30 02:04:08;;;;;;;8.05;7.25;;;7.60;99.90;;;;;;5049046;28;20028;-49
2022/09/30 02:06:44;;;;;;;7.97;7.00;;;7.50;99.90;;;;;;5048092;28;20031;-47
2022/09/30 02:09:31;;;;;;;9.05;7.40;;;7.50;99.90;;;;;;5047528;28;20017;-48
2022/09/30 02:12:01;;;;;;;8.70;7.35;;;7.40;99.90;;;;;;5043348;28;20475;-47
2022/09/30 02:14:39;;;;;;;7.97;6.32;;;7.40;99.90;;;;;;5044651;28;20021;-45
2022/09/30 02:17:14;;;;;;;15.90;7.50;;;7.40;99.90;;;;;;5027976;28;20028;-45
2022/09/30 02:19:44;;;;;;;8.52;7.50;;;7.30;99.90;;;;;;5049669;28;20056;-47
2022/09/30 02:22:16;;;;;;;9.43;8.45;;;7.30;99.90;;;;;;5028045;28;20020;-46
2022/09/30 02:24:46;;;;;;;8.95;7.95;;;7.30;99.90;;;;;;5048742;28;20021;-46
2022/09/30 02:27:17;;;;;;;11.68;7.45;;;7.20;99.90;;;;;;5042426;28;20075;-45
2022/09/30 02:29:49;;;;;;;8.50;7.00;;;7.20;99.90;;;;;;5041194;28;20040;-45
2022/09/30 02:32:19;;;;;;;8.30;7.50;;;7.20;99.90;;;;;;5039378;28;20029;-46
2022/09/30 02:34:56;;;;;;;7.57;6.88;;;7.20;99.90;;;;;;5024610;28;20034;-48
2022/09/30 02:37:40;;;;;;;8.43;7.60;;;7.10;99.90;;;;;;5036883;28;20029;-45
2022/09/30 02:40:15;;;;;;;8.88;7.78;;;7.10;99.90;;;;;;5044031;28;20024;-47
2022/09/30 02:42:44;;;;;;;8.38;7.57;;;7.10;99.90;;;;;;5033484;28;20026;-46
2022/09/30 02:45:15;;;;;;;8.02;7.22;;;7.10;99.90;;;;;;5045911;28;20017;-44
2022/09/30 02:47:57;;;;;;;8.40;6.78;;;7.10;99.90;;;;;;5043527;28;20018;-46
2022/09/30 02:50:34;;;;;;;7.53;6.82;;;7.10;99.90;;;;;;5014843;28;20021;-45
2022/09/30 02:53:09;;;;;;;8.65;7.65;;;7.10;99.90;;;;;;5041009;28;20036;-45
2022/09/30 02:56:00;;;;;;;9.55;7.40;;;7.10;99.90;;;;;;5040660;28;20488;-45
2022/09/30 02:58:26;;;;;;;8.18;7.38;;;7.10;99.90;;;;;;5024085;28;20513;-46
2022/09/30 03:00:53;;;;;;;9.00;8.07;;;7.10;99.90;;;;;;5048097;28;20055;-45
2022/09/30 03:03:24;;;;;;;7.80;6.88;;;7.10;99.90;;;;;;5041818;28;20014;-45
2022/09/30 03:05:50;;;;;;;9.38;7.55;;;7.10;99.90;;;;;;5020737;28;20028;-46
2022/09/30 03:08:16;;;;;;;8.70;7.75;;;7.10;99.90;;;;;;5044565;28;20108;-45
2022/09/30 03:10:42;;;;;;;8.98;7.80;;;7.10;99.90;;;;;;5045081;28;20112;-48
2022/09/30 03:13:46;;;;;;;8.45;7.53;;;7.10;99.90;;;;;;5026349;28;20021;-45
2022/09/30 03:16:23;;;;;;;9.93;8.77;;;7.10;99.90;;;;;;5041065;28;20399;-50
2022/09/30 03:19:08;;;;;;;10.00;8.18;;;7.10;99.90;;;;;;5041747;28;20060;-46
2022/09/30 03:22:04;;;;;;;9.10;8.20;;;7.10;99.90;;;;;;5044525;28;20025;-45
2022/09/30 03:24:29;;;;;;;9.15;8.18;;;7.10;99.90;;;;;;5034102;28;20017;-45
2022/09/30 03:27:16;;;;;;;10.57;8.85;;;7.10;99.90;;;;;;5043381;28;20022;-45
2022/09/30 03:29:49;;;;;;;15.45;9.90;;;7.10;99.90;;;;;;5044470;28;20028;-45
2022/09/30 03:32:35;;;;;;;9.85;8.85;;;7.20;99.90;;;;;;5033532;28;20122;-45
2022/09/30 03:35:03;;;;;;;10.82;9.65;;;7.20;99.90;;;;;;5042600;28;20666;-45
2022/09/30 03:37:55;;;;;;;13.77;10.40;;;7.20;99.90;;;;;;5045226;28;20506;-48
2022/09/30 03:40:50;;;;;;;11.25;9.80;;;7.20;99.90;;;;;;5034934;28;20041;-47
2022/09/30 03:43:40;;;;;;;10.55;8.98;;;7.30;99.90;;;;;;5033367;28;20044;-45
2022/09/30 03:46:09;;;;;;;11.52;9.80;;;7.30;99.90;;;;;;5042131;28;20030;-45
2022/09/30 03:48:36;;;;;;;11.50;9.73;;;7.30;99.90;;;;;;5043960;28;20021;-47
2022/09/30 03:51:04;;;;;;;12.25;10.95;;;7.30;99.90;;;;;;5042599;28;20063;-45
2022/09/30 03:53:30;;;;;;;11.45;10.30;;;7.30;99.90;;;;;;5044287;28;20103;-45
2022/09/30 03:55:55;;;;;;;13.25;11.75;;;7.40;99.90;;;;;;5043038;28;20148;-45
2022/09/30 03:58:24;;;;;;;14.07;11.25;;;7.40;99.90;;;;;;5044203;28;20021;-45
2022/09/30 04:00:52;;;;;;;12.73;11.27;;;7.40;99.90;;;;;;5043630;28;20140;-45
2022/09/30 04:03:19;;;;;;;13.25;11.25;;;7.40;99.90;;;;;;5043743;28;20020;-46
2022/09/30 04:05:46;;;;;;;11.85;10.63;;;7.40;99.90;;;;;;5042258;28;20025;-48
2022/09/30 04:08:12;;;;;;;12.45;10.93;;;7.50;99.90;;;;;;5043276;28;20029;-45
2022/09/30 04:10:42;;;;;;;13.38;11.98;;;7.50;99.90;;;;;;5042635;28;20041;-45
2022/09/30 04:13:08;;;;;;;14.13;12.05;;;7.50;99.90;;;;;;5043116;28;20030;-47
2022/09/30 04:15:35;;;;;;;14.52;12.25;;;7.50;99.90;;;;;;5043877;28;20032;-45
2022/09/30 04:18:01;;;;;;;13.93;11.65;;;7.60;99.90;;;;;;5041566;28;20163;-48
2022/09/30 04:20:29;;;;;;;15.45;11.88;;;7.60;99.90;;;;;;5044124;28;20312;-46
2022/09/30 04:22:58;;;;;;;15.35;12.63;;;7.60;99.90;;;;;;5042628;28;20108;-48
2022/09/30 04:25:23;;;;;;;13.00;11.63;;;7.70;99.90;;;;;;5043852;28;20411;-45
2022/09/30 04:27:49;;;;;;;15.95;12.48;;;7.70;99.90;;;;;;5035400;28;20033;-45
2022/09/30 04:30:15;;;;;;;15.70;12.27;;;7.70;99.90;;;;;;5043757;28;20044;-45
2022/09/30 04:32:46;;;;;;;16.58;14.38;;;7.70;99.90;;;;;;5044104;28;20104;-45
2022/09/30 04:35:12;;;;;;;15.77;12.10;;;7.80;99.90;;;;;;5041592;28;20025;-45
2022/09/30 04:37:42;;;;;;;14.85;12.98;;;7.80;99.90;;;;;;5043527;28;20495;-47
2022/09/30 04:40:09;;;;;;;16.17;12.80;;;7.80;99.90;;;;;;5042407;28;20052;-46
2022/09/30 04:42:35;;;;;;;15.48;12.50;;;7.80;99.90;;;;;;5043338;28;20013;-45
2022/09/30 04:45:02;;;;;;;16.73;11.90;;;7.80;99.90;;;;;;5041566;28;20403;-45
2022/09/30 04:47:28;;;;;;;16.80;12.15;;;7.80;99.90;;;;;;5042715;28;20071;-46
2022/09/30 04:49:55;;;;;;;13.93;11.32;;;7.90;99.90;;;;;;5042521;28;20063;-49
2022/09/30 04:52:21;;;;;;;14.38;12.75;;;7.90;99.90;;;;;;5042272;28;20016;-46
2022/09/30 04:54:46;;;;;;;16.08;12.77;;;7.90;99.90;;;;;;5043286;28;20087;-48
2022/09/30 04:57:12;;;;;;;14.65;12.25;;;7.90;99.90;;;;;;5042110;28;20029;-45
2022/09/30 04:59:38;;;;;;;14.98;12.13;;;7.90;99.90;;;;;;5043184;28;20030;-46
2022/09/30 05:02:04;;;;;;;15.23;11.75;;;8.00;99.90;;;;;;5042574;28;20515;-45
2022/09/30 05:04:32;;;;;;;16.95;13.20;;;8.00;99.90;;;;;;5043177;28;20032;-46
2022/09/30 05:06:59;;;;;;;15.02;12.20;;;8.00;99.90;;;;;;5041511;28;20112;-47
2022/09/30 05:09:24;;;;;;;20.52;13.48;;;8.00;99.90;;;;;;5039680;28;20494;-45
2022/09/30 05:11:50;;;;;;;16.73;13.85;;;8.00;99.90;;;;;;5029477;28;20025;-45
2022/09/30 05:14:16;;;;;;;17.10;13.35;;;8.00;99.90;;;;;;5039536;28;20036;-45
2022/09/30 05:16:42;;;;;;;14.65;12.27;;;8.00;99.90;;;;;;5042580;28;20037;-45
2022/09/30 05:19:08;;;;;;;17.33;14.18;;;8.00;99.90;;;;;;5044363;28;20096;-45
2022/09/30 05:21:34;;;;;;;15.93;12.48;;;8.00;99.90;;;;;;5044243;28;20032;-46
2022/09/30 05:24:00;;;;;;;14.32;11.77;;;8.00;99.90;;;;;;5041141;28;20479;-46
2022/09/30 05:26:27;;;;;;;16.55;12.95;;;8.00;99.90;;;;;;5038957;28;20021;-48
2022/09/30 05:28:52;;;;;;;15.05;12.77;;;8.00;99.90;;;;;;5045800;28;20032;-48
2022/09/30 05:31:19;;;;;;;16.00;12.35;;;8.00;99.90;;;;;;5020418;28;20033;-48
2022/09/30 05:33:45;;;;;;;16.13;12.20;;;8.00;99.90;;;;;;5046207;28;20498;-46
2022/09/30 05:36:14;;;;;;;13.13;11.45;;;8.00;99.90;;;;;;5038867;28;20041;-45
2022/09/30 05:38:40;;;;;;;16.55;12.50;;;8.00;99.90;;;;;;5046465;28;20032;-46
2022/09/30 05:41:10;;;;;;;15.07;12.82;;;8.10;99.90;;;;;;5040157;28;20025;-47
2022/09/30 05:43:37;;;;;;;20.10;12.73;;;8.10;99.90;;;;;;5038902;28;20021;-47
2022/09/30 05:46:02;;;;;;;14.15;11.45;;;8.10;99.90;;;;;;5045456;28;20076;-49
2022/09/30 05:48:28;;;;;;;14.57;12.60;;;8.10;99.90;;;;;;5038813;28;20021;-49
2022/09/30 05:50:59;;;;;;;14.82;12.13;;;8.10;99.90;;;;;;5046221;28;20028;-48
2022/09/30 05:53:26;;;;;;;18.17;12.27;;;8.10;99.90;;;;;;5038648;28;20060;-48
2022/09/30 05:55:52;;;;;;;13.57;11.70;;;8.10;99.90;;;;;;5046755;28;20083;-45
2022/09/30 05:58:19;;;;;;;13.40;11.27;;;8.10;99.90;;;;;;5038493;28;20084;-45
2022/09/30 06:00:46;;;;;;;14.25;11.63;;;8.10;99.90;;;;;;5021227;28;20025;-46
2022/09/30 06:03:12;;;;;;;12.82;11.27;;;8.10;99.90;;;;;;5044848;28;20022;-45
2022/09/30 06:05:38;;;;;;;13.00;11.40;;;8.10;99.90;;;;;;5038463;28;20037;-45
2022/09/30 06:08:06;;;;;;;14.88;12.02;;;8.00;99.90;;;;;;5039975;28;20033;-46
2022/09/30 06:10:32;;;;;;;17.50;14.30;;;8.00;99.90;;;;;;5042010;28;20112;-45
2022/09/30 06:12:58;;;;;;;15.82;13.27;;;8.00;99.90;;;;;;5041105;28;20018;-46
2022/09/30 06:15:25;;;;;;;15.52;13.05;;;8.00;99.90;;;;;;5041282;28;20502;-45
2022/09/30 06:17:54;;;;;;;13.75;12.07;;;8.00;99.90;;;;;;5039177;28;20425;-46
2022/09/30 06:20:20;;;;;;;18.70;13.88;;;8.00;99.90;;;;;;5041826;28;20025;-45
2022/09/30 06:22:45;;;;;;;18.70;13.55;;;8.00;99.90;;;;;;5040980;28;20033;-45
2022/09/30 06:25:11;;;;;;;15.70;13.13;;;8.10;99.90;;;;;;5041313;28;20040;-46
2022/09/30 06:27:37;;;;;;;15.57;13.98;;;8.10;99.90;;;;;;5041621;28;20117;-46
2022/09/30 06:30:07;;;;;;;18.08;14.70;;;8.10;99.90;;;;;;5041403;28;20021;-45
2022/09/30 06:32:32;;;;;;;17.58;13.73;;;8.10;99.90;;;;;;5041455;28;20108;-45
2022/09/30 06:34:58;;;;;;;16.35;13.13;;;8.20;99.90;;;;;;5038901;28;20104;-45
2022/09/30 06:37:24;;;;;;;20.13;14.75;;;8.20;99.90;;;;;;5041420;28;20029;-45
2022/09/30 06:39:50;;;;;;;16.08;13.88;;;8.30;99.90;;;;;;5022588;28;20515;-46
2022/09/30 06:42:17;;;;;;;20.33;14.32;;;8.30;99.90;;;;;;5041201;28;20083;-46
2022/09/30 06:44:43;;;;;;;16.48;13.63;;;8.20;99.90;;;;;;5041331;28;20292;-45
2022/09/30 06:47:09;;;;;;;16.13;14.43;;;8.20;99.90;;;;;;5040978;28;20072;-45
2022/09/30 06:49:35;;;;;;;16.65;13.90;;;8.20;99.90;;;;;;5041320;28;20060;-45
2022/09/30 06:52:00;;;;;;;15.88;14.10;;;8.30;99.90;;;;;;5039136;28;20100;-46
2022/09/30 06:54:27;;;;;;;16.92;14.45;;;8.30;99.90;;;;;;5041380;28;20408;-46
2022/09/30 06:56:56;;;;;;;18.17;14.80;;;8.30;99.90;;;;;;5022197;28;20036;-47
2022/09/30 06:59:22;;;;;;;16.48;13.68;;;8.30;99.90;;;;;;5041666;28;20021;-46
2022/09/30 07:01:48;;;;;;;17.30;15.00;;;8.30;99.90;;;;;;5041068;28;20021;-45
2022/09/30 07:04:13;;;;;;;17.83;14.63;;;8.40;99.90;;;;;;5041121;28;20013;-45
2022/09/30 07:06:40;;;;;;;18.70;14.18;;;8.40;99.90;;;;;;5040629;28;20503;-46
2022/09/30 07:09:06;;;;;;;17.55;15.45;;;8.40;99.90;;;;;;5020404;28;20049;-48
2022/09/30 07:11:31;;;;;;;20.83;16.52;;;8.50;99.90;;;;;;5042828;28;20056;-46
2022/09/30 07:13:57;;;;;;;17.35;15.45;;;8.50;99.90;;;;;;5039850;28;20036;-46
2022/09/30 07:16:24;;;;;;;18.60;14.50;;;8.60;99.90;;;;;;5037206;28;20033;-49
2022/09/30 07:18:50;;;;;;;19.55;15.50;;;8.60;99.90;;;;;;5043696;28;20041;-47
2022/09/30 07:21:16;;;;;;;17.83;14.32;;;8.70;99.90;;;;;;5036833;28;20060;-45
2022/09/30 07:23:46;;;;;;;22.25;17.80;;;8.70;99.90;;;;;;5025678;28;20020;-45
2022/09/30 07:26:14;;;;;;;20.23;17.20;;;8.80;99.90;;;;;;5037363;28;20022;-45
2022/09/30 07:28:40;;;;;;;25.48;15.07;;;8.80;99.90;;;;;;5044412;28;20028;-45
2022/09/30 07:31:12;;;;;;;18.17;14.85;;;8.90;99.90;;;;;;5038659;28;20021;-46
2022/09/30 07:33:38;;;;;;;19.73;15.73;;;8.90;99.90;;;;;;5014682;28;20492;-45
2022/09/30 07:36:07;;;;;;;18.83;15.32;;;9.00;99.90;;;;;;5255337;22;20751;-49
2022/09/30 07:38:35;;;;;;;18.80;13.75;;;9.10;99.90;;;;;;5038884;28;20030;-48
2022/09/30 07:41:13;;;;;;;19.60;15.15;;;9.10;99.90;;;;;;5044626;28;20032;-49
2022/09/30 07:43:42;;;;;;;21.80;15.98;;;9.20;99.90;;;;;;5037176;28;20498;-48
2022/09/30 07:46:09;;;;;;;19.77;16.23;;;9.40;99.90;;;;;;5048339;28;20040;-48
2022/09/30 07:48:47;;;;;;;22.23;16.40;;;9.40;99.90;;;;;;5040980;28;20018;-49
2022/09/30 07:51:17;;;;;;;20.52;15.73;;;9.50;99.90;;;;;;5044028;28;20540;-49
2022/09/30 07:53:45;;;;;;;17.77;15.10;;;9.60;99.90;;;;;;5025427;28;20079;-49
2022/09/30 07:56:13;;;;;;;18.67;16.02;;;9.80;99.90;;;;;;5044148;28;20182;-49
2022/09/30 07:58:39;;;;;;;20.60;15.38;;;9.80;99.90;;;;;;5044715;28;20514;-49
2022/09/30 08:01:08;;;;;;;20.02;16.00;;;9.90;99.90;;;;;;5043145;28;20095;-50
2022/09/30 08:03:38;;;;;;;15.95;14.25;;;10.00;99.90;;;;;;5042734;28;20026;-49
2022/09/30 08:06:15;;;;;;;17.80;14.20;;;10.10;99.90;;;;;;5042164;28;20385;-49
2022/09/30 08:08:43;;;;;;;17.25;14.38;;;10.20;99.90;;;;;;5044332;28;20032;-49
2022/09/30 08:11:09;;;;;;;18.88;15.50;;;10.30;99.90;;;;;;5044026;28;20040;-52
2022/09/30 08:13:35;;;;;;;18.95;14.23;;;10.40;99.90;;;;;;5044262;28;20025;-53
2022/09/30 08:16:01;;;;;;;16.05;12.98;;;10.50;99.90;;;;;;5042346;28;20032;-49
2022/09/30 08:18:27;;;;;;;16.80;13.60;;;10.60;99.90;;;;;;5043560;28;20028;-49
2022/09/30 08:20:52;;;;;;;14.35;12.18;;;10.80;99.90;;;;;;5043516;28;20195;-50
2022/09/30 08:23:18;;;;;;;15.88;11.73;;;10.90;99.90;;;;;;5043306;28;20049;-49
2022/09/30 08:25:43;;;;;;;13.57;11.10;;;11.00;99.90;;;;;;5043869;28;20036;-48
2022/09/30 08:28:09;;;;;;;12.10;9.68;;;11.10;99.90;;;;;;5043586;28;20029;-49
2022/09/30 08:30:36;;;;;;;10.80;9.57;;;11.20;99.90;;;;;;5043454;28;20503;-49
2022/09/30 08:33:01;;;;;;;11.02;9.43;;;11.20;99.90;;;;;;5041822;28;20029;-49
2022/09/30 08:35:27;;;;;;;11.25;8.95;;;11.30;99.90;;;;;;5043688;28;20051;-51
2022/09/30 08:37:53;;;;;;;10.93;8.43;;;11.40;99.90;;;;;;5042839;28;20029;-48
2022/09/30 08:40:28;;;;;;;8.98;7.35;;;11.50;99.90;;;;;;5043338;28;20020;-48
2022/09/30 08:43:18;;;;;;;7.85;7.05;;;11.60;99.90;;;;;;5042645;28;20029;-49
2022/09/30 08:46:06;;;;;;;7.25;6.53;;;11.60;99.90;;;;;;5043431;28;20021;-52
2022/09/30 08:48:54;;;;;;;7.28;5.72;;;11.70;99.90;;;;;;5036785;28;20032;-48
2022/09/30 08:51:30;;;;;;;6.57;5.65;;;11.70;99.90;;;;;;5026568;28;20029;-50
2022/09/30 08:54:01;;;;;;;7.50;5.78;;;11.80;99.90;;;;;;5039025;28;20781;-48
2022/09/30 08:56:29;;;;;;;7.30;5.38;;;11.80;99.90;;;;;;5042104;28;20134;-49
2022/09/30 08:59:15;;;;;;;5.95;5.35;;;11.90;99.90;;;;;;5042049;28;20022;-49
2022/09/30 09:01:46;;;;;;;5.93;5.30;;;11.90;99.90;;;;;;5042919;28;20023;-48
2022/09/30 09:04:12;;;;;;;8.63;5.93;;;11.90;99.90;;;;;;5043002;28;20036;-48
2022/09/30 09:07:01;;;;;;;7.25;5.13;;;12.00;99.90;;;;;;5041897;28;20629;-50
2022/09/30 09:10:22;;;;;;;6.85;5.20;;;12.10;99.90;;;;;;5036261;28;20392;-48
2022/09/30 09:13:08;;;;;;;4.78;3.90;;;12.10;99.90;;;;;;4990343;28;20044;-53
2022/09/30 09:15:59;;;;;;;4.22;3.83;;;12.20;99.90;;;;;;5035191;28;20025;-48
2022/09/30 09:18:38;;;;;;;4.68;4.28;;;12.20;99.90;;;;;;5035691;28;20029;-53
2022/09/30 09:21:15;;;;;;;4.85;4.28;;;12.20;99.90;;;;;;5041067;28;20464;-50
2022/09/30 09:23:41;;;;;;;4.18;3.78;;;12.20;99.90;;;;;;5045748;28;20056;-51
2022/09/30 09:26:13;;;;;;;6.25;4.20;;;12.20;99.90;;;;;;5040231;28;20033;-51
2022/09/30 09:29:16;;;;;;;5.88;3.78;;;12.30;99.90;;;;;;5046073;28;20083;-47
2022/09/30 09:31:41;;;;;;;5.68;4.28;;;12.30;99.90;;;;;;5037031;28;20575;-49
2022/09/30 09:34:10;;;;;;;4.22;3.70;;;12.40;99.90;;;;;;5041521;28;20068;-52
2022/09/30 09:37:01;;;;;;;4.75;4.22;;;12.40;99.90;;;;;;5042250;28;20124;-49
2022/09/30 09:39:49;;;;;;;4.55;3.45;;;12.50;99.90;;;;;;5030583;28;20064;-49
2022/09/30 09:42:35;;;;;;;4.95;3.85;;;12.60;99.90;;;;;;5031442;28;20027;-51
2022/09/30 09:45:19;;;;;;;4.70;3.60;;;12.60;99.90;;;;;;5042240;28;20449;-50
2022/09/30 09:47:50;;;;;;;3.83;3.28;;;12.60;99.90;;;;;;5042272;28;20483;-49
2022/09/30 09:50:22;;;;;;;5.30;3.28;;;12.70;99.90;;;;;;5036166;28;20475;-48
2022/09/30 09:53:06;;;;;;;4.57;4.13;;;12.80;99.90;;;;;;5045009;28;20033;-48
2022/09/30 09:55:32;;;;;;;5.50;3.65;;;12.90;99.90;;;;;;5037204;28;20080;-48
2022/09/30 09:58:05;;;;;;;3.35;2.95;;;12.90;99.90;;;;;;5045696;28;20471;-50
2022/09/30 10:03:18;;;;;;;4.13;3.40;;;12.80;99.90;;;;;;5046735;28;20100;-51
2022/09/30 10:05:46;;;;;;;4.95;3.25;;;12.70;99.90;;;;;;5020511;28;20024;-51
2022/09/30 10:08:17;;;;;;;3.70;2.55;;;12.70;99.90;;;;;;5041098;28;20021;-48
2022/09/30 10:10:52;;;;;;;3.65;2.67;;;12.70;99.90;;;;;;5042162;28;20021;-49
2022/09/30 10:13:39;;;;;;;3.55;3.03;;;12.70;99.90;;;;;;5041671;28;20074;-47
2022/09/30 10:16:05;;;;;;;3.50;3.20;;;12.80;99.90;;;;;;5039209;28;20471;-50
2022/09/30 10:18:33;;;;;;;4.35;3.50;;;12.80;99.90;;;;;;5042231;28;20483;-48
2022/09/30 10:21:03;;;;;;;3.05;2.60;;;12.90;99.90;;;;;;5022528;28;20120;-48
2022/09/30 10:23:39;;;;;;;6.25;2.83;;;12.90;99.90;;;;;;5036444;28;20012;-49
2022/09/30 10:26:14;;;;;;;4.78;2.42;;;13.00;99.90;;;;;;5039267;28;20028;-48
2022/09/30 10:28:50;;;;;;;3.10;2.80;;;13.10;99.90;;;;;;5040739;28;20502;-48
2022/09/30 10:31:24;;;;;;;2.78;2.50;;;13.20;99.90;;;;;;5032316;28;20021;-48
2022/09/30 10:34:12;;;;;;;3.90;3.03;;;13.20;99.90;;;;;;5038381;28;20096;-49
2022/09/30 10:36:42;;;;;;;3.92;2.90;;;13.20;99.90;;;;;;5041102;28;20100;-48
2022/09/30 10:39:17;;;;;;;3.55;2.35;;;13.30;99.90;;;;;;5041023;28;20076;-51
2022/09/30 10:41:43;;;;;;;3.65;2.53;;;13.30;99.90;;;;;;5041171;28;20022;-49
2022/09/30 10:44:19;;;;;;;3.42;2.03;;;13.20;99.90;;;;;;5040931;28;20047;-47
2022/09/30 10:46:47;;;;;;;3.20;1.85;;;13.30;99.90;;;;;;5041776;28;20022;-48
2022/09/30 10:49:42;;;;;;;2.65;2.28;;;13.30;99.90;;;;;;5041508;28;20024;-49
2022/09/30 10:52:18;;;;;;;3.10;2.33;;;13.30;99.90;;;;;;5021696;28;20025;-48
2022/09/30 10:55:04;;;;;;;2.53;2.33;;;13.30;99.90;;;;;;5041503;28;20060;-50
2022/09/30 10:57:35;;;;;;;4.63;3.22;;;13.40;99.90;;;;;;5036849;28;20410;-49
2022/09/30 11:00:14;;;;;;;3.33;2.40;;;13.50;99.90;;;;;;5039662;28;20035;-48
2022/09/30 11:02:45;;;;;;;3.97;3.00;;;13.50;99.90;;;;;;5039864;28;20048;-50
2022/09/30 11:05:14;;;;;;;3.78;2.40;;;13.50;99.90;;;;;;5038186;28;20056;-49
2022/09/30 11:07:55;;;;;;;3.50;2.33;;;13.50;99.90;;;;;;5033321;28;20021;-53
2022/09/30 11:10:38;;;;;;;2.70;2.17;;;13.60;99.90;;;;;;5028916;28;20131;-50
2022/09/30 11:13:09;;;;;;;4.00;2.50;;;13.60;99.90;;;;;;5040530;28;20029;-50
2022/09/30 11:15:44;;;;;;;3.33;2.85;;;13.70;99.90;;;;;;5041182;28;20483;-49
2022/09/30 11:18:10;;;;;;;3.35;2.58;;;13.80;99.90;;;;;;5038958;28;20025;-48
2022/09/30 11:20:44;;;;;;;4.40;3.25;;;13.80;99.90;;;;;;5043390;28;20311;-49
2022/09/30 11:23:22;;;;;;;2.63;2.40;;;13.90;99.90;;;;;;5043576;28;20036;-48
2022/09/30 11:26:09;;;;;;;3.20;2.90;;;14.00;99.90;;;;;;5044795;28;20025;-48
2022/09/30 11:29:07;;;;;;;5.15;3.47;;;14.00;99.90;;;;;;5042600;28;20025;-50
2022/09/30 11:31:43;;;;;;;3.67;2.90;;;14.10;99.90;;;;;;5037529;28;20048;-49
2022/09/30 11:34:11;;;;;;;3.45;3.15;;;14.20;99.90;;;;;;5043954;28;20033;-49
2022/09/30 11:36:56;;;;;;;2.92;2.63;;;14.30;99.90;;;;;;5043867;28;20038;-50
2022/09/30 11:39:48;;;;;;;3.50;2.33;;;14.30;99.90;;;;;;5032224;28;20036;-48
2022/09/30 11:42:22;;;;;;;2.65;1.88;;;14.40;99.90;;;;;;5033341;28;20024;-48
2022/09/30 11:45:08;;;;;;;1.52;1.42;;;14.50;99.90;;;;;;5044658;28;20029;-50
2022/09/30 11:48:00;;;;;;;2.80;1.60;;;14.60;99.90;;;;;;5039597;28;20032;-49
2022/09/30 11:50:31;;;;;;;1.83;1.40;;;14.60;99.90;;;;;;5009277;28;20025;-49
2022/09/30 11:53:23;;;;;;;2.03;1.58;;;14.60;99.90;;;;;;5047777;28;20036;-52
2022/09/30 11:56:14;;;;;;;1.90;1.60;;;14.50;99.90;;;;;;5020016;28;20026;-49
2022/09/30 11:58:46;;;;;;;1.58;1.30;;;14.50;99.90;;;;;;5044524;28;20069;-51
2022/09/30 12:01:36;;;;;;;1.65;1.50;;;14.40;99.90;;;;;;5044050;28;20019;-49
2022/09/30 12:04:07;;;;;;;2.58;1.17;;;14.40;99.90;;;;;;5044243;28;20028;-49
2022/09/30 12:06:45;;;;;;;4.72;1.70;;;14.30;99.90;;;;;;5043436;28;20025;-50
2022/09/30 12:09:42;;;;;;;1.58;1.38;;;14.20;99.90;;;;;;5040584;28;20026;-50
2022/09/30 12:12:12;;;;;;;1.00;1.00;;;14.10;99.90;;;;;;5048193;28;20032;-51
2022/09/30 12:14:46;;;;;;;3.20;0.93;;;14.00;99.90;;;;;;5040358;28;20609;-53
2022/09/30 12:17:32;;;;;;;1.42;1.20;;;14.10;99.90;;;;;;5045748;28;20438;-52
2022/09/30 12:20:09;;;;;;;1.30;1.20;;;14.00;99.90;;;;;;5042202;28;20018;-51
2022/09/30 12:22:40;;;;;;;1.25;1.15;;;14.00;99.90;;;;;;5043446;28;20163;-51
2022/09/30 12:25:25;;;;;;;1.67;1.35;;;14.10;99.90;;;;;;5042869;28;20055;-51
2022/09/30 12:30:16;;;;;;;3.57;1.43;;;14.10;99.90;;;;;;5025499;28;20025;-49
2022/09/30 12:31:04;;;;;;;2.60;2.40;;;14.30;99.90;;;;;;5044963;28;20025;-50
2022/09/30 12:33:51;;;;;;;2.88;2.00;;;14.40;99.90;;;;;;5022477;28;20505;-50
2022/09/30 12:36:32;;;;;;;1.67;1.50;;;14.50;99.90;;;;;;5033854;28;20049;-50
2022/09/30 12:39:25;;;;;;;1.80;1.52;;;14.60;99.90;;;;;;5039387;28;20369;-50
2022/09/30 12:42:16;;;;;;;2.42;1.77;;;14.60;99.90;;;;;;5042298;28;20388;-50
2022/09/30 12:45:14;;;;;;;2.42;2.22;;;14.60;99.90;;;;;;5043415;28;20387;-50
2022/09/30 12:47:46;;;;;;;3.08;1.98;;;14.50;99.90;;;;;;5039935;28;20447;-51
2022/09/30 12:50:17;;;;;;;2.88;1.80;;;14.50;99.90;;;;;;5040577;28;20017;-49
2022/09/30 12:52:43;;;;;;;2.28;2.00;;;14.50;99.90;;;;;;5045889;28;20029;-49
2022/09/30 12:55:37;;;;;;;2.63;2.42;;;14.50;99.90;;;;;;5040301;28;20037;-49
2022/09/30 12:58:04;;;;;;;3.08;2.72;;;14.50;99.90;;;;;;5047192;28;20033;-52
2022/09/30 13:00:36;;;;;;;2.67;2.47;;;14.50;99.90;;;;;;5039862;28;20014;-50
2022/09/30 13:03:14;;;;;;;3.30;2.78;;;14.50;99.90;;;;;;5047900;28;20025;-50
2022/09/30 13:05:39;;;;;;;4.95;3.20;;;14.60;99.90;;;;;;5039917;28;20040;-54
2022/09/30 13:08:05;;;;;;;3.75;3.20;;;14.50;99.90;;;;;;5041700;28;20025;-50
2022/09/30 13:10:36;;;;;;;2.80;2.60;;;14.60;99.90;;;;;;5043182;28;20037;-50
2022/09/30 13:13:25;;;;;;;4.20;3.03;;;14.60;99.90;;;;;;5042470;28;20026;-49
2022/09/30 13:15:51;;;;;;;3.85;3.38;;;14.70;99.90;;;;;;5042492;28;20025;-50
2022/09/30 13:18:20;;;;;;;4.20;3.80;;;14.80;99.90;;;;;;5041133;28;20099;-49
2022/09/30 13:21:04;;;;;;;4.88;3.38;;;14.80;99.90;;;;;;5043183;28;20096;-51
2022/09/30 13:23:56;;;;;;;4.07;3.40;;;14.90;99.90;;;;;;5038003;28;20025;-51
2022/09/30 13:26:25;;;;;;;3.30;3.00;;;15.00;99.90;;;;;;5034391;28;20057;-50
2022/09/30 13:29:11;;;;;;;5.97;3.42;;;14.90;99.90;;;;;;5039427;28;20093;-54